РУС

ENG

 
  Pireps - S7
 

Рейс SBI2162

  • Выполнял: Sergey Radchenko
  • Аэропорт отправления: Astrahan (URWA)
  • Аэропорт назначения: Domodedovo Airport (UUDD)
  • Тип ВС: A320-214 (VQ-BET)
  • Время полёта: 02.33
  • Дата полёта: 26.11.2021
  • Маршрут: BASKO R130 WGD R120 BUTRI R11 US R118 FE AO
  • Статус: Одобрен

Детали полёта
Gross Revenue:
(125 load / $ 180.00 per unit
$ 22, 500.00
Fuel Cost:
(3108 fuel used @ 5.1 / unit)
$ 15, 850.80


Дополнительная информация о полёте:

Лог

Aircraft Used in flight is Airbus A320 Neo AirAsia
22:20 Boarding
22:20 Navigation Lights ON at -60 AGL
22:20 Brakes are On
22:43 Spoilers Armed
22:43 Engine 2 Started
22:44 Engine 1 Started
22:46Flaps 1 Selected at -60ft and 1kts
22:46Flaps 2 Selected at -60ft and 1kts
22:46Flaps 1 Selected at -60ft and 1kts
22:46Flaps 4 Selected at -60ft and 1kts
22:46Flaps 3 Selected at -60ft and 1kts
22:46Flaps 2 Selected at -60ft and 1kts
22:46Flaps 3 Selected at -60ft and 1kts
22:46Flaps 2 Selected at -60ft and 1kts
22:47 Landing Lights ON at -60 AGL
22:47 Taxi Lights ON at -60 AGL
22:47 Taxi Lights OFF at -60 AGL
22:47 Beacon Lights ON at -60 AGL
22:47 Brakes are Released
22:51 Strobe Lights ON at -60 AGL
22:53 You Took off @ 150 Knots and Flaps at Position 2
Departure Weather
URWA 251930Z 00000MPS 8000 NSC M05/M06 Q1031 R27/010070 NOSIG RMK QFE775/1033
22:53 Paused
22:53 Unpaused
22:53 Brakes are On
22:53Flaps 1 Selected at 1560ft and 180kts
22:53Flaps Retracted at 1580ft and 185kts
22:53 Landing Gear Up @ 193 Knots and 1600 Feet
22:54 Landing Lights OFF at 4420 AGL
22:54 Taxi Lights ON at 4420 AGL
22:58 Brakes are Released
23:06 You exceeded maximum bank angle
00:38 Landing Lights ON at 3930 AGL
00:38Flaps 1 Selected at 3840ft and 175kts
00:38Flaps 2 Selected at 3850ft and 176kts
00:45Flaps 3 Selected at 3760ft and 139kts
00:45Flaps 4 Selected at 3690ft and 140kts
00:45 Landing Gear Down @ 129 Knots and 3230 Feet
00:50 Brakes are On
00:53 You Landed @ 118 Knots and with -200 Vertical Speed
Arrival Weather
UUDD 251900Z 21005MPS 170V230 9999 SCT011 OVC030 02/M00 Q1010 R88/520240 NOSIG
00:53 Spoilers Disarmed
00:53 Paused
00:53 Unpaused
00:53 Brakes are Released
00:53 Paused
00:54 Unpaused
00:54 Brakes are On
Pirep logged with S7 Tracking 1.0.0.14



Общая оценка полета : 100%




Route Map



 
 
   
 
Новости

29.12.2021 - C Новым годом

Дорогие друзья, поздравляю вас с Наступающим Новым годом!
Желаем успехов, приятных взлетов и мягких посадок!

   
 
Авторизация






Регистрация

Восстановить пароль?

Мы в соц. сетях

      



   
 





   
 


   
 


Яндекс.Метрика

www.va-s7.ru 2011-2021
Все права защищены.



Минуточку внимания!
Сайт va-s7.ru не является коммерческим проектом. Мы не имеем отношения к торговым маркам "S7" и "Globus" и их представителям.
Эмблемы на сайте являются собственностью соответствующих компаний.

аэронавигационная метеорологическая и любая другая информация с данного ресурса ни в коем случае не должна использоваться для реальных полетов